sensor_id;sensor_type;location;lat;lon;timestamp;P1;durP1;ratioP1;P2;durP2;ratioP2
60038;SDS011;45916;52.734;6.544;2023-04-29T00:01:18;56.80;;;42.35;;
60038;SDS011;45916;52.734;6.544;2023-04-29T00:03:44;56.15;;;41.33;;
60038;SDS011;45916;52.734;6.544;2023-04-29T00:06:09;53.10;;;41.25;;
60038;SDS011;45916;52.734;6.544;2023-04-29T00:08:37;59.47;;;41.08;;
60038;SDS011;45916;52.734;6.544;2023-04-29T00:11:03;57.17;;;43.50;;
60038;SDS011;45916;52.734;6.544;2023-04-29T00:13:29;54.33;;;41.35;;
60038;SDS011;45916;52.734;6.544;2023-04-29T00:15:54;55.67;;;42.65;;
60038;SDS011;45916;52.734;6.544;2023-04-29T00:18:20;55.92;;;41.90;;
60038;SDS011;45916;52.734;6.544;2023-04-29T00:20:46;55.08;;;43.20;;
60038;SDS011;45916;52.734;6.544;2023-04-29T00:23:11;56.05;;;41.08;;
60038;SDS011;45916;52.734;6.544;2023-04-29T00:25:37;55.90;;;42.63;;
60038;SDS011;45916;52.734;6.544;2023-04-29T00:28:04;53.00;;;40.85;;
60038;SDS011;45916;52.734;6.544;2023-04-29T00:30:30;51.97;;;41.85;;
60038;SDS011;45916;52.734;6.544;2023-04-29T00:32:57;52.20;;;39.63;;
60038;SDS011;45916;52.734;6.544;2023-04-29T00:35:23;51.42;;;40.20;;
60038;SDS011;45916;52.734;6.544;2023-04-29T00:37:48;49.67;;;39.00;;
60038;SDS011;45916;52.734;6.544;2023-04-29T00:40:14;46.88;;;37.10;;
60038;SDS011;45916;52.734;6.544;2023-04-29T00:42:40;44.55;;;36.47;;
60038;SDS011;45916;52.734;6.544;2023-04-29T00:45:07;48.50;;;37.67;;
60038;SDS011;45916;52.734;6.544;2023-04-29T00:47:33;48.75;;;37.58;;
60038;SDS011;45916;52.734;6.544;2023-04-29T00:49:59;46.00;;;36.88;;
60038;SDS011;45916;52.734;6.544;2023-04-29T00:52:25;50.92;;;38.13;;
60038;SDS011;45916;52.734;6.544;2023-04-29T00:54:54;47.95;;;35.95;;
60038;SDS011;45916;52.734;6.544;2023-04-29T00:57:20;45.85;;;36.70;;
60038;SDS011;45916;52.734;6.544;2023-04-29T00:59:47;47.80;;;38.58;;
60038;SDS011;45916;52.734;6.544;2023-04-29T01:02:13;41.08;;;35.85;;
60038;SDS011;45916;52.734;6.544;2023-04-29T01:04:41;47.90;;;37.80;;
60038;SDS011;45916;52.734;6.544;2023-04-29T01:07:18;46.47;;;36.40;;
60038;SDS011;45916;52.734;6.544;2023-04-29T01:15:27;43.13;;;34.92;;
60038;SDS011;45916;52.734;6.544;2023-04-29T01:17:59;46.47;;;34.97;;
60038;SDS011;45916;52.734;6.544;2023-04-29T01:20:28;43.80;;;34.42;;
60038;SDS011;45916;52.734;6.544;2023-04-29T01:22:55;46.22;;;36.75;;
60038;SDS011;45916;52.734;6.544;2023-04-29T01:25:21;41.55;;;33.45;;
60038;SDS011;45916;52.734;6.544;2023-04-29T01:41:44;45.85;;;35.38;;
60038;SDS011;45916;52.734;6.544;2023-04-29T01:44:28;44.22;;;35.92;;
60038;SDS011;45916;52.734;6.544;2023-04-29T01:46:56;44.25;;;35.67;;
60038;SDS011;45916;52.734;6.544;2023-04-29T01:49:28;46.40;;;35.67;;
60038;SDS011;45916;52.734;6.544;2023-04-29T01:51:54;42.63;;;35.70;;
60038;SDS011;45916;52.734;6.544;2023-04-29T01:54:20;45.50;;;36.03;;
60038;SDS011;45916;52.734;6.544;2023-04-29T01:56:49;48.33;;;37.17;;
60038;SDS011;45916;52.734;6.544;2023-04-29T01:59:16;48.70;;;35.15;;
60038;SDS011;45916;52.734;6.544;2023-04-29T02:01:41;46.08;;;37.28;;
60038;SDS011;45916;52.734;6.544;2023-04-29T02:04:07;48.20;;;36.22;;
60038;SDS011;45916;52.734;6.544;2023-04-29T02:06:33;49.80;;;38.88;;
60038;SDS011;45916;52.734;6.544;2023-04-29T02:08:59;49.17;;;39.13;;
60038;SDS011;45916;52.734;6.544;2023-04-29T02:11:24;52.45;;;39.72;;
60038;SDS011;45916;52.734;6.544;2023-04-29T02:13:51;54.53;;;39.08;;
60038;SDS011;45916;52.734;6.544;2023-04-29T02:16:16;51.00;;;37.42;;
60038;SDS011;45916;52.734;6.544;2023-04-29T02:18:42;47.13;;;38.63;;
60038;SDS011;45916;52.734;6.544;2023-04-29T02:21:08;48.67;;;39.10;;
60038;SDS011;45916;52.734;6.544;2023-04-29T02:23:34;50.42;;;36.67;;
60038;SDS011;45916;52.734;6.544;2023-04-29T02:26:00;51.00;;;37.03;;
60038;SDS011;45916;52.734;6.544;2023-04-29T02:28:29;54.63;;;38.28;;
60038;SDS011;45916;52.734;6.544;2023-04-29T02:30:55;50.15;;;38.58;;
60038;SDS011;45916;52.734;6.544;2023-04-29T02:33:20;55.45;;;38.95;;
60038;SDS011;45916;52.734;6.544;2023-04-29T02:35:46;48.58;;;34.83;;
60038;SDS011;45916;52.734;6.544;2023-04-29T02:38:12;47.80;;;35.97;;
60038;SDS011;45916;52.734;6.544;2023-04-29T02:40:41;51.20;;;36.38;;
60038;SDS011;45916;52.734;6.544;2023-04-29T02:43:08;46.50;;;34.70;;
60038;SDS011;45916;52.734;6.544;2023-04-29T02:45:34;47.80;;;34.83;;
60038;SDS011;45916;52.734;6.544;2023-04-29T02:48:00;43.25;;;32.55;;
60038;SDS011;45916;52.734;6.544;2023-04-29T02:50:26;43.83;;;32.65;;
60038;SDS011;45916;52.734;6.544;2023-04-29T02:52:52;45.42;;;33.35;;
60038;SDS011;45916;52.734;6.544;2023-04-29T02:55:19;44.50;;;33.65;;
60038;SDS011;45916;52.734;6.544;2023-04-29T02:57:44;41.05;;;32.55;;
60038;SDS011;45916;52.734;6.544;2023-04-29T03:00:10;39.28;;;31.90;;
60038;SDS011;45916;52.734;6.544;2023-04-29T03:02:36;42.53;;;33.08;;
60038;SDS011;45916;52.734;6.544;2023-04-29T03:05:02;41.80;;;31.38;;
60038;SDS011;45916;52.734;6.544;2023-04-29T03:07:28;41.90;;;31.65;;
60038;SDS011;45916;52.734;6.544;2023-04-29T03:09:55;41.63;;;31.70;;
60038;SDS011;45916;52.734;6.544;2023-04-29T03:12:20;37.75;;;32.13;;
60038;SDS011;45916;52.734;6.544;2023-04-29T03:14:46;43.03;;;32.53;;
60038;SDS011;45916;52.734;6.544;2023-04-29T03:17:12;41.50;;;32.92;;
60038;SDS011;45916;52.734;6.544;2023-04-29T03:19:38;40.75;;;31.65;;
60038;SDS011;45916;52.734;6.544;2023-04-29T03:22:04;40.97;;;31.15;;
60038;SDS011;45916;52.734;6.544;2023-04-29T03:24:30;44.45;;;32.70;;
60038;SDS011;45916;52.734;6.544;2023-04-29T03:26:56;42.03;;;31.90;;
60038;SDS011;45916;52.734;6.544;2023-04-29T03:29:24;47.23;;;32.57;;
60038;SDS011;45916;52.734;6.544;2023-04-29T03:31:51;44.17;;;32.03;;
60038;SDS011;45916;52.734;6.544;2023-04-29T03:34:18;43.72;;;30.65;;
60038;SDS011;45916;52.734;6.544;2023-04-29T03:36:44;39.33;;;30.75;;
60038;SDS011;45916;52.734;6.544;2023-04-29T03:39:09;40.53;;;29.65;;
60038;SDS011;45916;52.734;6.544;2023-04-29T03:41:36;36.55;;;29.52;;
60038;SDS011;45916;52.734;6.544;2023-04-29T03:44:02;41.53;;;30.92;;
60038;SDS011;45916;52.734;6.544;2023-04-29T03:46:29;42.15;;;29.38;;
60038;SDS011;45916;52.734;6.544;2023-04-29T03:48:54;39.13;;;28.40;;
60038;SDS011;45916;52.734;6.544;2023-04-29T03:51:23;40.95;;;29.83;;
60038;SDS011;45916;52.734;6.544;2023-04-29T03:53:50;40.00;;;30.23;;
60038;SDS011;45916;52.734;6.544;2023-04-29T03:56:17;37.67;;;30.17;;
60038;SDS011;45916;52.734;6.544;2023-04-29T03:58:43;40.35;;;30.40;;
60038;SDS011;45916;52.734;6.544;2023-04-29T04:01:09;38.38;;;29.60;;
60038;SDS011;45916;52.734;6.544;2023-04-29T04:03:36;37.70;;;30.10;;
60038;SDS011;45916;52.734;6.544;2023-04-29T04:06:01;38.30;;;29.85;;
60038;SDS011;45916;52.734;6.544;2023-04-29T04:08:27;39.38;;;30.60;;
60038;SDS011;45916;52.734;6.544;2023-04-29T04:10:53;43.75;;;30.67;;
60038;SDS011;45916;52.734;6.544;2023-04-29T04:13:19;39.45;;;30.88;;
60038;SDS011;45916;52.734;6.544;2023-04-29T04:15:49;38.97;;;30.45;;
60038;SDS011;45916;52.734;6.544;2023-04-29T04:18:16;42.97;;;31.67;;
60038;SDS011;45916;52.734;6.544;2023-04-29T04:20:42;41.50;;;31.92;;
60038;SDS011;45916;52.734;6.544;2023-04-29T04:23:07;43.42;;;33.05;;
60038;SDS011;45916;52.734;6.544;2023-04-29T04:25:33;42.97;;;33.33;;
60038;SDS011;45916;52.734;6.544;2023-04-29T04:27:58;45.30;;;33.60;;
60038;SDS011;45916;52.734;6.544;2023-04-29T04:30:24;40.15;;;31.67;;
60038;SDS011;45916;52.734;6.544;2023-04-29T04:32:50;42.75;;;30.55;;
60038;SDS011;45916;52.734;6.544;2023-04-29T04:35:15;44.90;;;32.13;;
60038;SDS011;45916;52.734;6.544;2023-04-29T04:37:41;43.55;;;32.10;;
60038;SDS011;45916;52.734;6.544;2023-04-29T04:40:07;42.42;;;30.23;;
60038;SDS011;45916;52.734;6.544;2023-04-29T04:42:35;40.80;;;31.27;;
60038;SDS011;45916;52.734;6.544;2023-04-29T04:45:01;42.97;;;31.38;;
60038;SDS011;45916;52.734;6.544;2023-04-29T04:47:26;39.70;;;28.40;;
60038;SDS011;45916;52.734;6.544;2023-04-29T04:49:52;44.03;;;29.77;;
60038;SDS011;45916;52.734;6.544;2023-04-29T04:52:21;40.03;;;29.67;;
60038;SDS011;45916;52.734;6.544;2023-04-29T04:54:47;39.95;;;27.95;;
60038;SDS011;45916;52.734;6.544;2023-04-29T04:57:12;37.10;;;30.02;;
60038;SDS011;45916;52.734;6.544;2023-04-29T04:59:38;38.30;;;27.08;;
60038;SDS011;45916;52.734;6.544;2023-04-29T05:02:04;38.25;;;28.67;;
60038;SDS011;45916;52.734;6.544;2023-04-29T05:04:29;42.15;;;29.70;;
60038;SDS011;45916;52.734;6.544;2023-04-29T05:06:55;41.67;;;28.90;;
60038;SDS011;45916;52.734;6.544;2023-04-29T05:09:21;38.53;;;28.27;;
60038;SDS011;45916;52.734;6.544;2023-04-29T05:11:46;38.88;;;27.58;;
60038;SDS011;45916;52.734;6.544;2023-04-29T05:14:12;40.45;;;28.75;;
60038;SDS011;45916;52.734;6.544;2023-04-29T05:16:38;37.20;;;27.10;;
60038;SDS011;45916;52.734;6.544;2023-04-29T05:19:03;38.85;;;26.95;;
60038;SDS011;45916;52.734;6.544;2023-04-29T05:21:29;36.67;;;27.88;;
60038;SDS011;45916;52.734;6.544;2023-04-29T05:23:55;36.78;;;25.70;;
60038;SDS011;45916;52.734;6.544;2023-04-29T05:26:21;33.83;;;25.20;;
60038;SDS011;45916;52.734;6.544;2023-04-29T05:28:47;34.97;;;26.70;;
60038;SDS011;45916;52.734;6.544;2023-04-29T05:31:13;35.28;;;25.75;;
60038;SDS011;45916;52.734;6.544;2023-04-29T05:33:38;38.00;;;26.00;;
60038;SDS011;45916;52.734;6.544;2023-04-29T05:36:04;31.90;;;24.90;;
60038;SDS011;45916;52.734;6.544;2023-04-29T05:38:30;34.30;;;24.77;;
60038;SDS011;45916;52.734;6.544;2023-04-29T05:40:56;35.45;;;23.85;;
60038;SDS011;45916;52.734;6.544;2023-04-29T05:43:22;32.20;;;26.25;;
60038;SDS011;45916;52.734;6.544;2023-04-29T05:45:48;35.65;;;23.98;;
60038;SDS011;45916;52.734;6.544;2023-04-29T05:48:14;33.33;;;24.73;;
60038;SDS011;45916;52.734;6.544;2023-04-29T05:50:40;36.80;;;24.42;;
60038;SDS011;45916;52.734;6.544;2023-04-29T05:53:06;34.13;;;24.45;;
60038;SDS011;45916;52.734;6.544;2023-04-29T05:55:32;30.52;;;24.02;;
60038;SDS011;45916;52.734;6.544;2023-04-29T05:57:58;34.10;;;24.65;;
60038;SDS011;45916;52.734;6.544;2023-04-29T06:00:23;33.58;;;24.65;;
60038;SDS011;45916;52.734;6.544;2023-04-29T06:02:49;32.53;;;23.63;;
60038;SDS011;45916;52.734;6.544;2023-04-29T06:05:15;27.70;;;22.17;;
60038;SDS011;45916;52.734;6.544;2023-04-29T06:07:41;31.83;;;23.13;;
60038;SDS011;45916;52.734;6.544;2023-04-29T06:10:07;30.80;;;22.45;;
60038;SDS011;45916;52.734;6.544;2023-04-29T06:12:33;31.08;;;22.85;;
60038;SDS011;45916;52.734;6.544;2023-04-29T06:14:59;29.45;;;21.00;;
60038;SDS011;45916;52.734;6.544;2023-04-29T06:17:25;31.05;;;22.52;;
60038;SDS011;45916;52.734;6.544;2023-04-29T06:19:53;29.27;;;20.48;;
60038;SDS011;45916;52.734;6.544;2023-04-29T06:22:19;27.15;;;20.35;;
60038;SDS011;45916;52.734;6.544;2023-04-29T06:24:45;25.13;;;19.50;;
60038;SDS011;45916;52.734;6.544;2023-04-29T06:27:14;25.77;;;20.63;;
60038;SDS011;45916;52.734;6.544;2023-04-29T06:29:40;28.60;;;20.02;;
60038;SDS011;45916;52.734;6.544;2023-04-29T06:32:06;26.58;;;19.65;;
60038;SDS011;45916;52.734;6.544;2023-04-29T06:34:32;26.65;;;19.05;;
60038;SDS011;45916;52.734;6.544;2023-04-29T06:36:58;26.02;;;18.92;;
60038;SDS011;45916;52.734;6.544;2023-04-29T06:39:24;26.58;;;19.02;;
60038;SDS011;45916;52.734;6.544;2023-04-29T06:41:49;29.48;;;19.85;;
60038;SDS011;45916;52.734;6.544;2023-04-29T06:44:16;22.85;;;17.45;;
60038;SDS011;45916;52.734;6.544;2023-04-29T06:46:43;24.13;;;18.50;;
60038;SDS011;45916;52.734;6.544;2023-04-29T06:49:08;26.08;;;18.27;;
60038;SDS011;45916;52.734;6.544;2023-04-29T06:51:35;23.25;;;17.13;;
60038;SDS011;45916;52.734;6.544;2023-04-29T06:54:02;22.58;;;17.67;;
60038;SDS011;45916;52.734;6.544;2023-04-29T06:56:28;24.55;;;16.67;;
60038;SDS011;45916;52.734;6.544;2023-04-29T06:58:54;23.90;;;16.63;;
60038;SDS011;45916;52.734;6.544;2023-04-29T07:01:19;23.45;;;17.08;;
60038;SDS011;45916;52.734;6.544;2023-04-29T07:03:45;27.90;;;18.15;;
60038;SDS011;45916;52.734;6.544;2023-04-29T07:06:11;21.67;;;16.27;;
60038;SDS011;45916;52.734;6.544;2023-04-29T07:08:37;22.77;;;16.10;;
60038;SDS011;45916;52.734;6.544;2023-04-29T07:11:03;25.50;;;17.58;;
60038;SDS011;45916;52.734;6.544;2023-04-29T07:13:29;21.70;;;15.57;;
60038;SDS011;45916;52.734;6.544;2023-04-29T07:15:55;21.13;;;16.90;;
60038;SDS011;45916;52.734;6.544;2023-04-29T07:18:20;19.27;;;14.88;;
60038;SDS011;45916;52.734;6.544;2023-04-29T07:20:46;21.80;;;15.25;;
60038;SDS011;45916;52.734;6.544;2023-04-29T07:23:13;17.38;;;14.68;;
60038;SDS011;45916;52.734;6.544;2023-04-29T07:25:39;21.33;;;15.48;;
60038;SDS011;45916;52.734;6.544;2023-04-29T07:28:05;19.13;;;14.82;;
60038;SDS011;45916;52.734;6.544;2023-04-29T07:30:33;18.17;;;14.17;;
60038;SDS011;45916;52.734;6.544;2023-04-29T07:32:58;15.40;;;12.88;;
60038;SDS011;45916;52.734;6.544;2023-04-29T07:35:25;18.63;;;13.82;;
60038;SDS011;45916;52.734;6.544;2023-04-29T07:37:51;17.08;;;12.88;;
60038;SDS011;45916;52.734;6.544;2023-04-29T07:40:17;19.92;;;13.65;;
60038;SDS011;45916;52.734;6.544;2023-04-29T07:42:43;15.50;;;12.18;;
60038;SDS011;45916;52.734;6.544;2023-04-29T07:45:08;18.25;;;12.70;;
60038;SDS011;45916;52.734;6.544;2023-04-29T07:47:34;14.95;;;11.95;;
60038;SDS011;45916;52.734;6.544;2023-04-29T07:50:00;15.30;;;11.23;;
60038;SDS011;45916;52.734;6.544;2023-04-29T07:52:26;16.73;;;12.02;;
60038;SDS011;45916;52.734;6.544;2023-04-29T07:54:52;14.38;;;10.90;;
60038;SDS011;45916;52.734;6.544;2023-04-29T07:57:20;14.02;;;11.07;;
60038;SDS011;45916;52.734;6.544;2023-04-29T07:59:46;12.27;;;9.65;;
60038;SDS011;45916;52.734;6.544;2023-04-29T08:02:15;13.95;;;9.95;;
60038;SDS011;45916;52.734;6.544;2023-04-29T08:04:40;12.13;;;10.10;;
60038;SDS011;45916;52.734;6.544;2023-04-29T08:07:06;12.50;;;10.20;;
60038;SDS011;45916;52.734;6.544;2023-04-29T08:09:33;11.98;;;9.60;;
60038;SDS011;45916;52.734;6.544;2023-04-29T08:11:58;11.38;;;9.32;;
60038;SDS011;45916;52.734;6.544;2023-04-29T08:14:26;13.02;;;8.93;;
60038;SDS011;45916;52.734;6.544;2023-04-29T08:16:52;11.93;;;8.57;;
60038;SDS011;45916;52.734;6.544;2023-04-29T08:19:19;12.77;;;9.40;;
60038;SDS011;45916;52.734;6.544;2023-04-29T08:21:45;11.75;;;9.25;;
60038;SDS011;45916;52.734;6.544;2023-04-29T08:24:11;11.10;;;9.73;;
60038;SDS011;45916;52.734;6.544;2023-04-29T08:26:40;10.48;;;8.55;;
60038;SDS011;45916;52.734;6.544;2023-04-29T08:29:06;14.50;;;9.15;;
60038;SDS011;45916;52.734;6.544;2023-04-29T08:31:32;12.40;;;9.40;;
60038;SDS011;45916;52.734;6.544;2023-04-29T08:33:58;12.60;;;9.25;;
60038;SDS011;45916;52.734;6.544;2023-04-29T08:36:24;10.23;;;9.13;;
60038;SDS011;45916;52.734;6.544;2023-04-29T08:38:52;9.80;;;8.60;;
60038;SDS011;45916;52.734;6.544;2023-04-29T08:41:19;11.43;;;8.73;;
60038;SDS011;45916;52.734;6.544;2023-04-29T08:43:44;10.50;;;9.40;;
60038;SDS011;45916;52.734;6.544;2023-04-29T08:46:10;11.02;;;8.15;;
60038;SDS011;45916;52.734;6.544;2023-04-29T08:48:37;9.65;;;8.50;;
60038;SDS011;45916;52.734;6.544;2023-04-29T08:51:06;11.38;;;8.70;;
60038;SDS011;45916;52.734;6.544;2023-04-29T08:53:31;10.40;;;8.85;;
60038;SDS011;45916;52.734;6.544;2023-04-29T08:56:00;9.93;;;8.02;;
60038;SDS011;45916;52.734;6.544;2023-04-29T08:58:33;10.45;;;7.63;;
60038;SDS011;45916;52.734;6.544;2023-04-29T09:01:05;9.40;;;7.70;;
60038;SDS011;45916;52.734;6.544;2023-04-29T09:03:39;10.07;;;7.47;;
60038;SDS011;45916;52.734;6.544;2023-04-29T09:06:08;12.15;;;8.95;;
60038;SDS011;45916;52.734;6.544;2023-04-29T09:08:36;8.63;;;7.60;;
60038;SDS011;45916;52.734;6.544;2023-04-29T09:11:03;11.80;;;9.10;;
60038;SDS011;45916;52.734;6.544;2023-04-29T09:13:32;11.68;;;9.45;;
60038;SDS011;45916;52.734;6.544;2023-04-29T09:15:57;9.95;;;8.15;;
60038;SDS011;45916;52.734;6.544;2023-04-29T09:18:42;11.98;;;9.00;;
60038;SDS011;45916;52.734;6.544;2023-04-29T09:21:19;10.38;;;8.38;;
60038;SDS011;45916;52.734;6.544;2023-04-29T09:23:53;10.50;;;8.88;;
60038;SDS011;45916;52.734;6.544;2023-04-29T09:26:23;11.48;;;8.70;;
60038;SDS011;45916;52.734;6.544;2023-04-29T09:29:23;10.20;;;8.65;;
60038;SDS011;45916;52.734;6.544;2023-04-29T09:31:42;11.52;;;8.93;;
60038;SDS011;45916;52.734;6.544;2023-04-29T09:34:09;11.45;;;8.57;;
60038;SDS011;45916;52.734;6.544;2023-04-29T09:39:08;11.73;;;9.52;;
60038;SDS011;45916;52.734;6.544;2023-04-29T09:41:36;12.02;;;9.38;;
60038;SDS011;45916;52.734;6.544;2023-04-29T09:44:07;14.32;;;9.38;;
60038;SDS011;45916;52.734;6.544;2023-04-29T09:46:34;12.05;;;8.88;;
60038;SDS011;45916;52.734;6.544;2023-04-29T09:49:01;12.57;;;9.32;;
60038;SDS011;45916;52.734;6.544;2023-04-29T09:51:29;10.18;;;8.75;;
60038;SDS011;45916;52.734;6.544;2023-04-29T09:54:00;10.30;;;8.38;;
60038;SDS011;45916;52.734;6.544;2023-04-29T09:56:51;12.00;;;8.35;;
60038;SDS011;45916;52.734;6.544;2023-04-29T09:59:20;9.80;;;8.20;;
60038;SDS011;45916;52.734;6.544;2023-04-29T10:01:51;8.48;;;6.95;;
60038;SDS011;45916;52.734;6.544;2023-04-29T10:04:21;8.95;;;7.00;;
60038;SDS011;45916;52.734;6.544;2023-04-29T10:06:49;9.10;;;6.43;;
60038;SDS011;45916;52.734;6.544;2023-04-29T10:09:17;8.68;;;6.95;;
60038;SDS011;45916;52.734;6.544;2023-04-29T10:11:44;10.23;;;7.28;;
60038;SDS011;45916;52.734;6.544;2023-04-29T10:14:12;9.90;;;6.83;;
60038;SDS011;45916;52.734;6.544;2023-04-29T10:16:46;8.90;;;6.88;;
60038;SDS011;45916;52.734;6.544;2023-04-29T10:19:14;10.07;;;7.68;;
60038;SDS011;45916;52.734;6.544;2023-04-29T10:21:47;8.10;;;6.80;;
60038;SDS011;45916;52.734;6.544;2023-04-29T10:24:14;9.33;;;7.70;;
60038;SDS011;45916;52.734;6.544;2023-04-29T10:26:46;11.27;;;7.95;;
60038;SDS011;45916;52.734;6.544;2023-04-29T10:29:18;10.23;;;7.28;;
60038;SDS011;45916;52.734;6.544;2023-04-29T10:31:46;11.02;;;7.38;;
60038;SDS011;45916;52.734;6.544;2023-04-29T10:34:14;8.85;;;7.47;;
60038;SDS011;45916;52.734;6.544;2023-04-29T10:36:42;10.02;;;7.75;;
60038;SDS011;45916;52.734;6.544;2023-04-29T10:39:11;9.50;;;7.50;;
60038;SDS011;45916;52.734;6.544;2023-04-29T10:41:45;11.07;;;7.45;;
60038;SDS011;45916;52.734;6.544;2023-04-29T10:44:12;10.50;;;6.25;;
60038;SDS011;45916;52.734;6.544;2023-04-29T10:46:38;10.18;;;7.18;;
60038;SDS011;45916;52.734;6.544;2023-04-29T10:49:04;10.48;;;7.45;;
60038;SDS011;45916;52.734;6.544;2023-04-29T10:51:38;11.75;;;7.00;;
60038;SDS011;45916;52.734;6.544;2023-04-29T10:54:13;10.45;;;7.72;;
60038;SDS011;45916;52.734;6.544;2023-04-29T10:56:41;9.32;;;7.95;;
60038;SDS011;45916;52.734;6.544;2023-04-29T10:59:12;11.40;;;7.80;;
60038;SDS011;45916;52.734;6.544;2023-04-29T11:01:51;11.50;;;7.78;;
60038;SDS011;45916;52.734;6.544;2023-04-29T11:04:20;10.20;;;7.95;;
60038;SDS011;45916;52.734;6.544;2023-04-29T11:06:50;9.30;;;7.97;;
60038;SDS011;45916;52.734;6.544;2023-04-29T11:11:47;8.35;;;5.70;;
60038;SDS011;45916;52.734;6.544;2023-04-29T11:17:15;10.35;;;7.68;;
60038;SDS011;45916;52.734;6.544;2023-04-29T11:22:26;10.40;;;6.00;;
60038;SDS011;45916;52.734;6.544;2023-04-29T11:24:55;20.77;;;8.20;;
60038;SDS011;45916;52.734;6.544;2023-04-29T11:27:26;13.10;;;7.65;;
60038;SDS011;45916;52.734;6.544;2023-04-29T11:29:59;12.40;;;7.60;;
60038;SDS011;45916;52.734;6.544;2023-04-29T11:32:27;8.50;;;6.60;;
60038;SDS011;45916;52.734;6.544;2023-04-29T11:34:55;9.95;;;6.78;;
60038;SDS011;45916;52.734;6.544;2023-04-29T11:37:35;11.02;;;7.63;;
60038;SDS011;45916;52.734;6.544;2023-04-29T11:40:01;13.65;;;7.40;;
60038;SDS011;45916;52.734;6.544;2023-04-29T11:42:27;9.80;;;7.28;;
60038;SDS011;45916;52.734;6.544;2023-04-29T11:44:53;9.85;;;7.30;;
60038;SDS011;45916;52.734;6.544;2023-04-29T11:47:24;10.52;;;7.00;;
60038;SDS011;45916;52.734;6.544;2023-04-29T11:49:52;9.57;;;7.35;;
60038;SDS011;45916;52.734;6.544;2023-04-29T11:52:18;9.23;;;6.65;;
60038;SDS011;45916;52.734;6.544;2023-04-29T11:54:44;9.98;;;6.72;;
60038;SDS011;45916;52.734;6.544;2023-04-29T11:57:11;8.70;;;5.88;;
60038;SDS011;45916;52.734;6.544;2023-04-29T11:59:37;9.68;;;5.88;;
60038;SDS011;45916;52.734;6.544;2023-04-29T12:02:07;8.48;;;5.43;;
60038;SDS011;45916;52.734;6.544;2023-04-29T12:04:44;9.32;;;5.72;;
60038;SDS011;45916;52.734;6.544;2023-04-29T12:07:11;8.70;;;6.00;;
60038;SDS011;45916;52.734;6.544;2023-04-29T12:09:42;10.55;;;6.55;;
60038;SDS011;45916;52.734;6.544;2023-04-29T12:12:09;10.10;;;6.40;;
60038;SDS011;45916;52.734;6.544;2023-04-29T12:14:35;10.63;;;6.15;;
60038;SDS011;45916;52.734;6.544;2023-04-29T12:17:02;8.27;;;5.75;;
60038;SDS011;45916;52.734;6.544;2023-04-29T12:19:28;8.70;;;5.25;;
60038;SDS011;45916;52.734;6.544;2023-04-29T12:21:57;7.75;;;5.10;;
60038;SDS011;45916;52.734;6.544;2023-04-29T12:24:23;12.02;;;5.78;;
60038;SDS011;45916;52.734;6.544;2023-04-29T12:26:49;8.93;;;5.97;;
60038;SDS011;45916;52.734;6.544;2023-04-29T12:29:15;8.68;;;5.20;;
60038;SDS011;45916;52.734;6.544;2023-04-29T12:31:46;8.07;;;4.75;;
60038;SDS011;45916;52.734;6.544;2023-04-29T12:34:12;9.73;;;5.35;;
60038;SDS011;45916;52.734;6.544;2023-04-29T12:36:40;8.10;;;5.03;;
60038;SDS011;45916;52.734;6.544;2023-04-29T12:39:06;8.52;;;5.20;;
60038;SDS011;45916;52.734;6.544;2023-04-29T12:44:03;8.80;;;6.03;;
60038;SDS011;45916;52.734;6.544;2023-04-29T12:46:34;9.07;;;5.47;;
60038;SDS011;45916;52.734;6.544;2023-04-29T12:49:04;8.93;;;5.70;;
60038;SDS011;45916;52.734;6.544;2023-04-29T12:51:31;9.65;;;5.78;;
60038;SDS011;45916;52.734;6.544;2023-04-29T12:54:01;7.82;;;4.88;;
60038;SDS011;45916;52.734;6.544;2023-04-29T12:56:31;10.27;;;5.60;;
60038;SDS011;45916;52.734;6.544;2023-04-29T12:59:03;7.07;;;4.53;;
60038;SDS011;45916;52.734;6.544;2023-04-29T13:01:30;10.52;;;5.47;;
60038;SDS011;45916;52.734;6.544;2023-04-29T13:03:56;8.30;;;6.20;;
60038;SDS011;45916;52.734;6.544;2023-04-29T13:06:22;9.73;;;5.03;;
60038;SDS011;45916;52.734;6.544;2023-04-29T13:08:48;10.40;;;6.18;;
60038;SDS011;45916;52.734;6.544;2023-04-29T13:11:15;8.43;;;5.13;;
60038;SDS011;45916;52.734;6.544;2023-04-29T13:13:41;8.75;;;5.10;;
60038;SDS011;45916;52.734;6.544;2023-04-29T13:16:07;8.38;;;5.65;;
60038;SDS011;45916;52.734;6.544;2023-04-29T13:18:33;12.10;;;6.28;;
60038;SDS011;45916;52.734;6.544;2023-04-29T13:20:59;8.90;;;5.28;;
60038;SDS011;45916;52.734;6.544;2023-04-29T13:23:25;8.43;;;5.38;;
60038;SDS011;45916;52.734;6.544;2023-04-29T13:25:51;7.22;;;4.72;;
60038;SDS011;45916;52.734;6.544;2023-04-29T13:28:17;7.45;;;4.93;;
60038;SDS011;45916;52.734;6.544;2023-04-29T13:30:43;6.43;;;4.47;;
60038;SDS011;45916;52.734;6.544;2023-04-29T13:33:08;9.50;;;5.10;;
60038;SDS011;45916;52.734;6.544;2023-04-29T13:35:34;8.20;;;5.28;;
60038;SDS011;45916;52.734;6.544;2023-04-29T13:38:02;8.48;;;5.28;;
60038;SDS011;45916;52.734;6.544;2023-04-29T13:40:28;8.20;;;4.40;;
60038;SDS011;45916;52.734;6.544;2023-04-29T13:42:53;8.80;;;4.65;;
60038;SDS011;45916;52.734;6.544;2023-04-29T13:45:19;7.68;;;4.43;;
60038;SDS011;45916;52.734;6.544;2023-04-29T13:47:45;7.85;;;4.32;;
60038;SDS011;45916;52.734;6.544;2023-04-29T13:50:11;7.97;;;4.38;;
60038;SDS011;45916;52.734;6.544;2023-04-29T13:52:37;7.65;;;4.40;;
60038;SDS011;45916;52.734;6.544;2023-04-29T13:55:03;6.30;;;4.18;;
60038;SDS011;45916;52.734;6.544;2023-04-29T13:57:29;6.60;;;4.22;;
60038;SDS011;45916;52.734;6.544;2023-04-29T13:59:54;8.63;;;4.05;;
60038;SDS011;45916;52.734;6.544;2023-04-29T14:02:20;7.68;;;4.53;;
60038;SDS011;45916;52.734;6.544;2023-04-29T14:04:46;10.63;;;4.68;;
60038;SDS011;45916;52.734;6.544;2023-04-29T14:07:12;7.05;;;3.92;;
60038;SDS011;45916;52.734;6.544;2023-04-29T14:09:38;6.40;;;4.07;;
60038;SDS011;45916;52.734;6.544;2023-04-29T14:12:04;7.40;;;4.32;;
60038;SDS011;45916;52.734;6.544;2023-04-29T14:14:30;9.98;;;4.50;;
60038;SDS011;45916;52.734;6.544;2023-04-29T14:16:56;9.90;;;5.47;;
60038;SDS011;45916;52.734;6.544;2023-04-29T14:19:22;7.88;;;5.07;;
60038;SDS011;45916;52.734;6.544;2023-04-29T14:21:47;7.88;;;4.90;;
60038;SDS011;45916;52.734;6.544;2023-04-29T14:24:13;8.55;;;5.10;;
60038;SDS011;45916;52.734;6.544;2023-04-29T14:26:39;6.75;;;4.15;;
60038;SDS011;45916;52.734;6.544;2023-04-29T14:29:06;6.65;;;3.40;;
60038;SDS011;45916;52.734;6.544;2023-04-29T14:31:35;7.40;;;4.13;;
60038;SDS011;45916;52.734;6.544;2023-04-29T14:34:02;7.35;;;3.95;;
60038;SDS011;45916;52.734;6.544;2023-04-29T14:36:28;5.95;;;2.90;;
60038;SDS011;45916;52.734;6.544;2023-04-29T14:38:56;6.25;;;2.95;;
60038;SDS011;45916;52.734;6.544;2023-04-29T14:41:22;5.65;;;2.53;;
60038;SDS011;45916;52.734;6.544;2023-04-29T14:43:49;6.15;;;2.60;;
60038;SDS011;45916;52.734;6.544;2023-04-29T14:46:15;4.35;;;1.90;;
60038;SDS011;45916;52.734;6.544;2023-04-29T14:48:40;6.20;;;2.53;;
60038;SDS011;45916;52.734;6.544;2023-04-29T14:51:06;4.85;;;2.42;;
60038;SDS011;45916;52.734;6.544;2023-04-29T14:53:32;5.05;;;2.85;;
60038;SDS011;45916;52.734;6.544;2023-04-29T14:55:58;4.57;;;2.40;;
60038;SDS011;45916;52.734;6.544;2023-04-29T14:58:24;4.90;;;2.58;;
60038;SDS011;45916;52.734;6.544;2023-04-29T15:00:50;5.97;;;2.63;;
60038;SDS011;45916;52.734;6.544;2023-04-29T15:03:16;5.13;;;2.53;;